sensor_id;sensor_type;location;lat;lon;timestamp;P1;durP1;ratioP1;P2;durP2;ratioP2
14092;SDS011;7123;49.468;10.992;2022-08-19T00:02:00;18.07;;;16.27;;
14092;SDS011;7123;49.468;10.992;2022-08-19T00:04:28;19.90;;;16.57;;
14092;SDS011;7123;49.468;10.992;2022-08-19T00:06:57;18.63;;;16.60;;
14092;SDS011;7123;49.468;10.992;2022-08-19T00:09:25;17.77;;;15.97;;
14092;SDS011;7123;49.468;10.992;2022-08-19T00:11:53;15.07;;;13.47;;
14092;SDS011;7123;49.468;10.992;2022-08-19T00:14:22;18.40;;;16.37;;
14092;SDS011;7123;49.468;10.992;2022-08-19T00:16:51;20.10;;;16.33;;
14092;SDS011;7123;49.468;10.992;2022-08-19T00:19:20;18.08;;;16.23;;
14092;SDS011;7123;49.468;10.992;2022-08-19T00:21:48;16.30;;;14.90;;
14092;SDS011;7123;49.468;10.992;2022-08-19T00:24:15;18.27;;;16.58;;
14092;SDS011;7123;49.468;10.992;2022-08-19T00:26:43;19.35;;;16.75;;
14092;SDS011;7123;49.468;10.992;2022-08-19T00:29:12;15.18;;;13.73;;
14092;SDS011;7123;49.468;10.992;2022-08-19T00:31:41;15.73;;;14.30;;
14092;SDS011;7123;49.468;10.992;2022-08-19T00:34:09;19.67;;;17.60;;
14092;SDS011;7123;49.468;10.992;2022-08-19T00:36:38;15.68;;;14.15;;
14092;SDS011;7123;49.468;10.992;2022-08-19T00:39:05;18.45;;;16.55;;
14092;SDS011;7123;49.468;10.992;2022-08-19T00:41:32;16.00;;;14.50;;
14092;SDS011;7123;49.468;10.992;2022-08-19T00:44:01;19.65;;;16.88;;
14092;SDS011;7123;49.468;10.992;2022-08-19T00:46:34;19.65;;;17.52;;
14092;SDS011;7123;49.468;10.992;2022-08-19T00:49:06;15.47;;;13.90;;
14092;SDS011;7123;49.468;10.992;2022-08-19T00:51:44;13.90;;;12.57;;
14092;SDS011;7123;49.468;10.992;2022-08-19T00:54:14;14.52;;;13.10;;
14092;SDS011;7123;49.468;10.992;2022-08-19T00:56:41;13.00;;;11.73;;
14092;SDS011;7123;49.468;10.992;2022-08-19T00:59:09;14.48;;;12.65;;
14092;SDS011;7123;49.468;10.992;2022-08-19T01:01:37;17.42;;;15.82;;
14092;SDS011;7123;49.468;10.992;2022-08-19T01:04:05;18.20;;;16.30;;
14092;SDS011;7123;49.468;10.992;2022-08-19T01:06:33;18.25;;;16.30;;
14092;SDS011;7123;49.468;10.992;2022-08-19T01:09:02;18.33;;;16.52;;
14092;SDS011;7123;49.468;10.992;2022-08-19T01:11:30;18.30;;;15.48;;
14092;SDS011;7123;49.468;10.992;2022-08-19T01:13:59;15.95;;;14.55;;
14092;SDS011;7123;49.468;10.992;2022-08-19T01:16:26;14.40;;;13.10;;
14092;SDS011;7123;49.468;10.992;2022-08-19T01:18:55;15.90;;;14.30;;
14092;SDS011;7123;49.468;10.992;2022-08-19T01:24:10;16.27;;;14.80;;
14092;SDS011;7123;49.468;10.992;2022-08-19T01:26:41;18.35;;;16.55;;
14092;SDS011;7123;49.468;10.992;2022-08-19T01:29:11;19.10;;;17.10;;
14092;SDS011;7123;49.468;10.992;2022-08-19T01:31:40;16.45;;;14.73;;
14092;SDS011;7123;49.468;10.992;2022-08-19T01:34:07;19.10;;;17.27;;
14092;SDS011;7123;49.468;10.992;2022-08-19T01:36:36;19.40;;;17.50;;
14092;SDS011;7123;49.468;10.992;2022-08-19T01:39:11;21.70;;;19.43;;
14092;SDS011;7123;49.468;10.992;2022-08-19T01:41:40;21.17;;;19.07;;
14092;SDS011;7123;49.468;10.992;2022-08-19T01:44:07;19.60;;;17.70;;
14092;SDS011;7123;49.468;10.992;2022-08-19T01:46:44;21.17;;;18.93;;
14092;SDS011;7123;49.468;10.992;2022-08-19T01:49:13;20.80;;;18.67;;
14092;SDS011;7123;49.468;10.992;2022-08-19T01:51:40;23.40;;;21.00;;
14092;SDS011;7123;49.468;10.992;2022-08-19T01:54:07;21.60;;;19.30;;
14092;SDS011;7123;49.468;10.992;2022-08-19T01:56:36;18.75;;;16.85;;
14092;SDS011;7123;49.468;10.992;2022-08-19T01:59:04;23.03;;;20.63;;
14092;SDS011;7123;49.468;10.992;2022-08-19T02:01:36;18.15;;;16.25;;
14092;SDS011;7123;49.468;10.992;2022-08-19T02:04:03;23.80;;;21.30;;
14092;SDS011;7123;49.468;10.992;2022-08-19T02:06:32;22.83;;;20.53;;
14092;SDS011;7123;49.468;10.992;2022-08-19T02:08:59;23.45;;;21.02;;
14092;SDS011;7123;49.468;10.992;2022-08-19T02:11:27;27.27;;;21.63;;
14092;SDS011;7123;49.468;10.992;2022-08-19T02:13:58;25.85;;;21.83;;
14092;SDS011;7123;49.468;10.992;2022-08-19T02:16:26;23.80;;;21.27;;
14092;SDS011;7123;49.468;10.992;2022-08-19T02:18:53;21.48;;;19.17;;
14092;SDS011;7123;49.468;10.992;2022-08-19T02:21:21;21.43;;;19.23;;
14092;SDS011;7123;49.468;10.992;2022-08-19T02:23:49;21.00;;;18.88;;
14092;SDS011;7123;49.468;10.992;2022-08-19T02:26:17;21.63;;;18.45;;
14092;SDS011;7123;49.468;10.992;2022-08-19T02:28:45;18.17;;;16.33;;
14092;SDS011;7123;49.468;10.992;2022-08-19T02:31:13;25.27;;;21.08;;
14092;SDS011;7123;49.468;10.992;2022-08-19T02:33:44;21.88;;;19.65;;
14092;SDS011;7123;49.468;10.992;2022-08-19T02:36:13;17.98;;;16.17;;
14092;SDS011;7123;49.468;10.992;2022-08-19T02:38:45;22.95;;;20.55;;
14092;SDS011;7123;49.468;10.992;2022-08-19T02:41:21;21.13;;;18.90;;
14092;SDS011;7123;49.468;10.992;2022-08-19T02:43:53;17.83;;;16.10;;
14092;SDS011;7123;49.468;10.992;2022-08-19T02:46:45;18.58;;;16.67;;
14092;SDS011;7123;49.468;10.992;2022-08-19T02:49:13;19.60;;;17.60;;
14092;SDS011;7123;49.468;10.992;2022-08-19T02:51:43;19.25;;;17.25;;
14092;SDS011;7123;49.468;10.992;2022-08-19T02:54:11;20.23;;;18.05;;
14092;SDS011;7123;49.468;10.992;2022-08-19T02:56:39;22.23;;;19.85;;
14092;SDS011;7123;49.468;10.992;2022-08-19T02:59:07;22.63;;;20.27;;
14092;SDS011;7123;49.468;10.992;2022-08-19T03:01:38;23.48;;;21.00;;
14092;SDS011;7123;49.468;10.992;2022-08-19T03:04:07;24.17;;;21.42;;
14092;SDS011;7123;49.468;10.992;2022-08-19T03:06:37;24.23;;;21.77;;
14092;SDS011;7123;49.468;10.992;2022-08-19T03:09:05;21.60;;;19.40;;
14092;SDS011;7123;49.468;10.992;2022-08-19T03:11:31;23.47;;;20.93;;
14092;SDS011;7123;49.468;10.992;2022-08-19T03:13:59;22.97;;;20.57;;
14092;SDS011;7123;49.468;10.992;2022-08-19T03:16:29;23.50;;;20.75;;
14092;SDS011;7123;49.468;10.992;2022-08-19T03:18:59;24.45;;;20.77;;
14092;SDS011;7123;49.468;10.992;2022-08-19T03:21:28;25.37;;;22.67;;
14092;SDS011;7123;49.468;10.992;2022-08-19T03:23:58;26.77;;;23.77;;
14092;SDS011;7123;49.468;10.992;2022-08-19T03:26:30;27.27;;;24.03;;
14092;SDS011;7123;49.468;10.992;2022-08-19T03:29:00;27.20;;;22.53;;
14092;SDS011;7123;49.468;10.992;2022-08-19T03:31:30;23.33;;;20.93;;
14092;SDS011;7123;49.468;10.992;2022-08-19T03:34:18;26.07;;;23.27;;
14092;SDS011;7123;49.468;10.992;2022-08-19T03:36:47;30.13;;;23.40;;
14092;SDS011;7123;49.468;10.992;2022-08-19T03:39:14;25.27;;;22.57;;
14092;SDS011;7123;49.468;10.992;2022-08-19T03:41:42;28.27;;;23.80;;
14092;SDS011;7123;49.468;10.992;2022-08-19T03:44:14;26.13;;;23.40;;
14092;SDS011;7123;49.468;10.992;2022-08-19T03:46:48;26.57;;;23.70;;
14092;SDS011;7123;49.468;10.992;2022-08-19T03:49:17;27.07;;;23.63;;
14092;SDS011;7123;49.468;10.992;2022-08-19T03:51:46;29.47;;;23.53;;
14092;SDS011;7123;49.468;10.992;2022-08-19T03:54:15;27.27;;;23.73;;
14092;SDS011;7123;49.468;10.992;2022-08-19T03:56:44;34.27;;;24.03;;
14092;SDS011;7123;49.468;10.992;2022-08-19T03:59:15;27.27;;;24.20;;
14092;SDS011;7123;49.468;10.992;2022-08-19T04:01:46;29.43;;;23.97;;
14092;SDS011;7123;49.468;10.992;2022-08-19T04:04:12;24.93;;;22.23;;
14092;SDS011;7123;49.468;10.992;2022-08-19T04:06:39;26.17;;;23.13;;
14092;SDS011;7123;49.468;10.992;2022-08-19T04:09:08;28.87;;;23.20;;
14092;SDS011;7123;49.468;10.992;2022-08-19T04:11:38;27.00;;;23.17;;
14092;SDS011;7123;49.468;10.992;2022-08-19T04:14:10;26.50;;;22.80;;
14092;SDS011;7123;49.468;10.992;2022-08-19T04:16:42;28.83;;;23.10;;
14092;SDS011;7123;49.468;10.992;2022-08-19T04:19:10;26.63;;;22.60;;
14092;SDS011;7123;49.468;10.992;2022-08-19T04:21:38;25.57;;;22.87;;
14092;SDS011;7123;49.468;10.992;2022-08-19T04:24:05;28.43;;;23.77;;
14092;SDS011;7123;49.468;10.992;2022-08-19T04:26:34;29.30;;;23.57;;
14092;SDS011;7123;49.468;10.992;2022-08-19T04:29:04;23.90;;;21.40;;
14092;SDS011;7123;49.468;10.992;2022-08-19T04:31:37;29.67;;;24.13;;
14092;SDS011;7123;49.468;10.992;2022-08-19T04:34:05;29.90;;;23.30;;
14092;SDS011;7123;49.468;10.992;2022-08-19T04:36:33;26.03;;;22.33;;
14092;SDS011;7123;49.468;10.992;2022-08-19T04:39:09;27.97;;;22.90;;
14092;SDS011;7123;49.468;10.992;2022-08-19T04:41:40;23.70;;;20.33;;
14092;SDS011;7123;49.468;10.992;2022-08-19T04:44:25;28.63;;;22.97;;
14092;SDS011;7123;49.468;10.992;2022-08-19T04:46:52;24.80;;;20.77;;
14092;SDS011;7123;49.468;10.992;2022-08-19T04:49:20;25.47;;;20.43;;
14092;SDS011;7123;49.468;10.992;2022-08-19T04:51:49;27.97;;;23.80;;
14092;SDS011;7123;49.468;10.992;2022-08-19T04:54:17;22.90;;;19.77;;
14092;SDS011;7123;49.468;10.992;2022-08-19T04:57:03;23.70;;;20.57;;
14092;SDS011;7123;49.468;10.992;2022-08-19T04:59:33;21.83;;;19.05;;
14092;SDS011;7123;49.468;10.992;2022-08-19T05:02:01;20.77;;;18.67;;
14092;SDS011;7123;49.468;10.992;2022-08-19T05:04:29;23.25;;;19.60;;
14092;SDS011;7123;49.468;10.992;2022-08-19T05:06:59;24.80;;;21.13;;
14092;SDS011;7123;49.468;10.992;2022-08-19T05:09:28;24.08;;;20.52;;
14092;SDS011;7123;49.468;10.992;2022-08-19T05:12:16;26.00;;;20.20;;
14092;SDS011;7123;49.468;10.992;2022-08-19T05:14:43;21.27;;;17.98;;
14092;SDS011;7123;49.468;10.992;2022-08-19T05:17:11;22.15;;;18.33;;
14092;SDS011;7123;49.468;10.992;2022-08-19T05:19:58;21.55;;;19.25;;
14092;SDS011;7123;49.468;10.992;2022-08-19T05:22:44;22.25;;;18.73;;
14092;SDS011;7123;49.468;10.992;2022-08-19T05:25:14;22.08;;;18.40;;
14092;SDS011;7123;49.468;10.992;2022-08-19T05:27:45;19.83;;;17.73;;
14092;SDS011;7123;49.468;10.992;2022-08-19T05:30:13;20.05;;;17.95;;
14092;SDS011;7123;49.468;10.992;2022-08-19T05:32:40;18.88;;;16.77;;
14092;SDS011;7123;49.468;10.992;2022-08-19T05:35:08;19.85;;;17.73;;
14092;SDS011;7123;49.468;10.992;2022-08-19T05:37:35;22.73;;;20.42;;
14092;SDS011;7123;49.468;10.992;2022-08-19T05:40:03;25.30;;;20.17;;
14092;SDS011;7123;49.468;10.992;2022-08-19T05:42:30;25.60;;;22.85;;
14092;SDS011;7123;49.468;10.992;2022-08-19T05:44:57;27.58;;;23.13;;
14092;SDS011;7123;49.468;10.992;2022-08-19T05:47:24;22.90;;;19.38;;
14092;SDS011;7123;49.468;10.992;2022-08-19T05:49:51;22.23;;;19.83;;
14092;SDS011;7123;49.468;10.992;2022-08-19T05:52:18;19.85;;;17.75;;
14092;SDS011;7123;49.468;10.992;2022-08-19T05:54:51;19.92;;;17.92;;
14092;SDS011;7123;49.468;10.992;2022-08-19T05:57:21;26.85;;;22.63;;
14092;SDS011;7123;49.468;10.992;2022-08-19T05:59:48;31.80;;;23.20;;
14092;SDS011;7123;49.468;10.992;2022-08-19T06:02:23;28.73;;;23.00;;
14092;SDS011;7123;49.468;10.992;2022-08-19T06:04:51;27.90;;;22.08;;
14092;SDS011;7123;49.468;10.992;2022-08-19T06:07:18;26.17;;;23.27;;
14092;SDS011;7123;49.468;10.992;2022-08-19T06:09:45;24.77;;;20.35;;
14092;SDS011;7123;49.468;10.992;2022-08-19T06:12:25;23.73;;;20.45;;
14092;SDS011;7123;49.468;10.992;2022-08-19T06:14:59;24.60;;;21.27;;
14092;SDS011;7123;49.468;10.992;2022-08-19T06:17:28;24.75;;;21.00;;
14092;SDS011;7123;49.468;10.992;2022-08-19T06:19:57;25.63;;;20.98;;
14092;SDS011;7123;49.468;10.992;2022-08-19T06:22:24;23.73;;;20.83;;
14092;SDS011;7123;49.468;10.992;2022-08-19T06:24:51;24.73;;;21.90;;
14092;SDS011;7123;49.468;10.992;2022-08-19T06:27:20;26.23;;;22.40;;
14092;SDS011;7123;49.468;10.992;2022-08-19T06:29:47;25.38;;;21.70;;
14092;SDS011;7123;49.468;10.992;2022-08-19T06:32:15;22.30;;;19.90;;
14092;SDS011;7123;49.468;10.992;2022-08-19T06:34:44;25.98;;;20.85;;
14092;SDS011;7123;49.468;10.992;2022-08-19T06:37:11;22.92;;;19.33;;
14092;SDS011;7123;49.468;10.992;2022-08-19T06:39:39;22.43;;;19.97;;
14092;SDS011;7123;49.468;10.992;2022-08-19T06:42:07;24.67;;;21.00;;
14092;SDS011;7123;49.468;10.992;2022-08-19T06:44:36;23.13;;;19.73;;
14092;SDS011;7123;49.468;10.992;2022-08-19T06:47:09;22.13;;;19.63;;
14092;SDS011;7123;49.468;10.992;2022-08-19T06:49:48;20.23;;;17.93;;
14092;SDS011;7123;49.468;10.992;2022-08-19T06:52:15;23.58;;;19.70;;
14092;SDS011;7123;49.468;10.992;2022-08-19T06:54:43;20.00;;;17.20;;
14092;SDS011;7123;49.468;10.992;2022-08-19T06:57:21;22.67;;;20.20;;
14092;SDS011;7123;49.468;10.992;2022-08-19T06:59:49;21.63;;;18.50;;
14092;SDS011;7123;49.468;10.992;2022-08-19T07:02:16;20.17;;;16.38;;
14092;SDS011;7123;49.468;10.992;2022-08-19T07:04:48;18.10;;;14.88;;
14092;SDS011;7123;49.468;10.992;2022-08-19T07:07:19;16.33;;;14.73;;
14092;SDS011;7123;49.468;10.992;2022-08-19T07:09:47;16.33;;;14.60;;
14092;SDS011;7123;49.468;10.992;2022-08-19T07:12:26;14.07;;;12.77;;
14092;SDS011;7123;49.468;10.992;2022-08-19T07:15:01;13.55;;;12.32;;
14092;SDS011;7123;49.468;10.992;2022-08-19T07:17:29;13.02;;;11.90;;
14092;SDS011;7123;49.468;10.992;2022-08-19T07:19:59;15.75;;;11.30;;
14092;SDS011;7123;49.468;10.992;2022-08-19T07:22:32;12.85;;;11.55;;
14092;SDS011;7123;49.468;10.992;2022-08-19T07:24:59;12.57;;;11.38;;
14092;SDS011;7123;49.468;10.992;2022-08-19T07:27:28;12.60;;;10.90;;
14092;SDS011;7123;49.468;10.992;2022-08-19T07:29:58;12.07;;;10.82;;
14092;SDS011;7123;49.468;10.992;2022-08-19T07:32:26;13.00;;;11.80;;
14092;SDS011;7123;49.468;10.992;2022-08-19T07:34:53;13.02;;;11.82;;
14092;SDS011;7123;49.468;10.992;2022-08-19T07:37:22;12.40;;;11.32;;
14092;SDS011;7123;49.468;10.992;2022-08-19T07:39:55;14.40;;;13.00;;
14092;SDS011;7123;49.468;10.992;2022-08-19T07:42:22;13.82;;;12.38;;
14092;SDS011;7123;49.468;10.992;2022-08-19T07:44:49;15.20;;;13.38;;
14092;SDS011;7123;49.468;10.992;2022-08-19T07:47:16;16.13;;;13.73;;
14092;SDS011;7123;49.468;10.992;2022-08-19T07:50:05;15.48;;;13.90;;
14092;SDS011;7123;49.468;10.992;2022-08-19T07:52:34;14.15;;;12.23;;
14092;SDS011;7123;49.468;10.992;2022-08-19T07:55:05;14.70;;;13.20;;
14092;SDS011;7123;49.468;10.992;2022-08-19T07:57:53;14.77;;;13.35;;
14092;SDS011;7123;49.468;10.992;2022-08-19T08:00:20;18.55;;;16.65;;
14092;SDS011;7123;49.468;10.992;2022-08-19T08:02:49;20.35;;;18.23;;
14092;SDS011;7123;49.468;10.992;2022-08-19T08:05:21;28.48;;;22.42;;
14092;SDS011;7123;49.468;10.992;2022-08-19T08:08:09;23.33;;;20.35;;
14092;SDS011;7123;49.468;10.992;2022-08-19T08:10:55;24.87;;;21.37;;
14092;SDS011;7123;49.468;10.992;2022-08-19T08:13:23;25.97;;;20.90;;
14092;SDS011;7123;49.468;10.992;2022-08-19T08:15:51;29.93;;;22.50;;
14092;SDS011;7123;49.468;10.992;2022-08-19T08:18:21;30.33;;;23.93;;
14092;SDS011;7123;49.468;10.992;2022-08-19T08:20:53;27.17;;;21.33;;
14092;SDS011;7123;49.468;10.992;2022-08-19T08:23:24;27.67;;;21.97;;
14092;SDS011;7123;49.468;10.992;2022-08-19T08:25:53;29.87;;;23.47;;
14092;SDS011;7123;49.468;10.992;2022-08-19T08:28:23;24.80;;;22.03;;
14092;SDS011;7123;49.468;10.992;2022-08-19T08:30:55;28.93;;;23.60;;
14092;SDS011;7123;49.468;10.992;2022-08-19T08:33:24;26.90;;;23.00;;
14092;SDS011;7123;49.468;10.992;2022-08-19T08:36:01;31.73;;;23.73;;
14092;SDS011;7123;49.468;10.992;2022-08-19T08:38:31;29.07;;;23.40;;
14092;SDS011;7123;49.468;10.992;2022-08-19T08:43:54;31.00;;;23.73;;
14092;SDS011;7123;49.468;10.992;2022-08-19T08:46:43;26.07;;;21.30;;
14092;SDS011;7123;49.468;10.992;2022-08-19T08:49:19;28.90;;;22.53;;
14092;SDS011;7123;49.468;10.992;2022-08-19T08:52:13;30.60;;;24.20;;
14092;SDS011;7123;49.468;10.992;2022-08-19T08:54:43;26.57;;;23.47;;
14092;SDS011;7123;49.468;10.992;2022-08-19T09:00:08;27.80;;;22.83;;
14092;SDS011;7123;49.468;10.992;2022-08-19T09:02:41;27.47;;;22.70;;
14092;SDS011;7123;49.468;10.992;2022-08-19T09:05:09;25.67;;;21.90;;
14092;SDS011;7123;49.468;10.992;2022-08-19T09:07:58;28.63;;;21.77;;
14092;SDS011;7123;49.468;10.992;2022-08-19T09:10:48;22.63;;;18.53;;
14092;SDS011;7123;49.468;10.992;2022-08-19T09:13:24;26.03;;;20.13;;
14092;SDS011;7123;49.468;10.992;2022-08-19T09:15:57;25.83;;;20.90;;
14092;SDS011;7123;49.468;10.992;2022-08-19T09:18:38;26.03;;;20.90;;
14092;SDS011;7123;49.468;10.992;2022-08-19T09:21:19;25.63;;;20.93;;
14092;SDS011;7123;49.468;10.992;2022-08-19T09:23:55;28.40;;;22.07;;
14092;SDS011;7123;49.468;10.992;2022-08-19T09:26:25;28.20;;;23.03;;
14092;SDS011;7123;49.468;10.992;2022-08-19T09:29:13;23.57;;;19.87;;
14092;SDS011;7123;49.468;10.992;2022-08-19T09:31:39;27.93;;;22.23;;
14092;SDS011;7123;49.468;10.992;2022-08-19T09:34:07;26.83;;;21.83;;
14092;SDS011;7123;49.468;10.992;2022-08-19T09:36:46;26.93;;;22.30;;
14092;SDS011;7123;49.468;10.992;2022-08-19T09:39:20;25.60;;;21.20;;
14092;SDS011;7123;49.468;10.992;2022-08-19T09:41:47;24.27;;;21.57;;
14092;SDS011;7123;49.468;10.992;2022-08-19T09:44:16;25.47;;;21.27;;
14092;SDS011;7123;49.468;10.992;2022-08-19T09:46:44;25.93;;;21.23;;
14092;SDS011;7123;49.468;10.992;2022-08-19T09:49:13;24.30;;;20.37;;
14092;SDS011;7123;49.468;10.992;2022-08-19T09:51:43;25.67;;;20.60;;
14092;SDS011;7123;49.468;10.992;2022-08-19T09:54:16;25.70;;;20.40;;
14092;SDS011;7123;49.468;10.992;2022-08-19T09:56:50;23.47;;;19.13;;
14092;SDS011;7123;49.468;10.992;2022-08-19T09:59:17;25.83;;;21.50;;
14092;SDS011;7123;49.468;10.992;2022-08-19T10:01:44;28.30;;;20.87;;
14092;SDS011;7123;49.468;10.992;2022-08-19T10:04:11;24.33;;;19.37;;
14092;SDS011;7123;49.468;10.992;2022-08-19T10:06:45;27.43;;;22.30;;
14092;SDS011;7123;49.468;10.992;2022-08-19T10:09:18;21.80;;;19.50;;
14092;SDS011;7123;49.468;10.992;2022-08-19T10:11:59;25.83;;;20.35;;
14092;SDS011;7123;49.468;10.992;2022-08-19T10:14:28;21.57;;;19.37;;
14092;SDS011;7123;49.468;10.992;2022-08-19T10:16:54;20.97;;;18.50;;
14092;SDS011;7123;49.468;10.992;2022-08-19T10:19:24;20.80;;;18.17;;
14092;SDS011;7123;49.468;10.992;2022-08-19T10:21:52;21.37;;;18.83;;
14092;SDS011;7123;49.468;10.992;2022-08-19T10:24:25;22.33;;;19.93;;
14092;SDS011;7123;49.468;10.992;2022-08-19T10:26:53;22.97;;;19.93;;
14092;SDS011;7123;49.468;10.992;2022-08-19T10:29:22;20.13;;;17.57;;
14092;SDS011;7123;49.468;10.992;2022-08-19T10:31:59;20.43;;;18.23;;
14092;SDS011;7123;49.468;10.992;2022-08-19T10:34:38;19.87;;;17.77;;
14092;SDS011;7123;49.468;10.992;2022-08-19T10:37:14;20.63;;;18.47;;
14092;SDS011;7123;49.468;10.992;2022-08-19T10:39:54;26.03;;;18.43;;
14092;SDS011;7123;49.468;10.992;2022-08-19T10:42:21;21.60;;;19.33;;
14092;SDS011;7123;49.468;10.992;2022-08-19T10:44:47;21.83;;;19.53;;
14092;SDS011;7123;49.468;10.992;2022-08-19T10:47:17;22.93;;;19.70;;
14092;SDS011;7123;49.468;10.992;2022-08-19T10:49:51;21.20;;;18.63;;
14092;SDS011;7123;49.468;10.992;2022-08-19T10:52:41;19.00;;;16.37;;
14092;SDS011;7123;49.468;10.992;2022-08-19T10:55:16;19.43;;;17.43;;
14092;SDS011;7123;49.468;10.992;2022-08-19T10:58:03;23.00;;;18.83;;
14092;SDS011;7123;49.468;10.992;2022-08-19T11:00:36;19.73;;;17.63;;
14092;SDS011;7123;49.468;10.992;2022-08-19T11:03:03;19.37;;;17.10;;
14092;SDS011;7123;49.468;10.992;2022-08-19T11:05:29;23.10;;;19.03;;
14092;SDS011;7123;49.468;10.992;2022-08-19T11:08:05;19.80;;;17.73;;
14092;SDS011;7123;49.468;10.992;2022-08-19T11:10:49;20.13;;;17.93;;
14092;SDS011;7123;49.468;10.992;2022-08-19T11:13:17;19.73;;;17.70;;
14092;SDS011;7123;49.468;10.992;2022-08-19T11:15:43;20.80;;;18.60;;
14092;SDS011;7123;49.468;10.992;2022-08-19T11:18:13;21.43;;;17.90;;
14092;SDS011;7123;49.468;10.992;2022-08-19T11:20:40;19.70;;;17.67;;
14092;SDS011;7123;49.468;10.992;2022-08-19T11:23:07;20.83;;;18.60;;
14092;SDS011;7123;49.468;10.992;2022-08-19T11:25:34;18.87;;;16.87;;
14092;SDS011;7123;49.468;10.992;2022-08-19T11:28:01;20.23;;;17.40;;
14092;SDS011;7123;49.468;10.992;2022-08-19T11:30:29;17.40;;;15.70;;
14092;SDS011;7123;49.468;10.992;2022-08-19T11:32:58;18.13;;;16.23;;
14092;SDS011;7123;49.468;10.992;2022-08-19T11:35:26;23.27;;;17.23;;
14092;SDS011;7123;49.468;10.992;2022-08-19T11:37:54;18.03;;;16.13;;
14092;SDS011;7123;49.468;10.992;2022-08-19T11:40:22;19.23;;;17.00;;
14092;SDS011;7123;49.468;10.992;2022-08-19T11:42:49;18.27;;;16.37;;
14092;SDS011;7123;49.468;10.992;2022-08-19T11:45:23;18.10;;;16.20;;
14092;SDS011;7123;49.468;10.992;2022-08-19T11:47:52;15.70;;;14.10;;
14092;SDS011;7123;49.468;10.992;2022-08-19T11:50:19;17.67;;;15.90;;
14092;SDS011;7123;49.468;10.992;2022-08-19T11:52:46;18.13;;;15.07;;
14092;SDS011;7123;49.468;10.992;2022-08-19T11:55:15;17.30;;;15.60;;
14092;SDS011;7123;49.468;10.992;2022-08-19T11:57:42;19.10;;;16.53;;
14092;SDS011;7123;49.468;10.992;2022-08-19T12:00:10;23.10;;;17.42;;
14092;SDS011;7123;49.468;10.992;2022-08-19T12:02:40;14.93;;;13.07;;
14092;SDS011;7123;49.468;10.992;2022-08-19T12:05:07;14.33;;;12.93;;
14092;SDS011;7123;49.468;10.992;2022-08-19T12:07:38;16.23;;;13.25;;
14092;SDS011;7123;49.468;10.992;2022-08-19T12:10:05;14.63;;;13.23;;
14092;SDS011;7123;49.468;10.992;2022-08-19T12:12:33;14.77;;;13.30;;
14092;SDS011;7123;49.468;10.992;2022-08-19T12:15:00;18.20;;;12.65;;
14092;SDS011;7123;49.468;10.992;2022-08-19T12:17:28;13.83;;;12.20;;
14092;SDS011;7123;49.468;10.992;2022-08-19T12:19:56;14.93;;;13.32;;
14092;SDS011;7123;49.468;10.992;2022-08-19T12:22:23;16.50;;;14.90;;
14092;SDS011;7123;49.468;10.992;2022-08-19T12:24:50;15.13;;;13.53;;
14092;SDS011;7123;49.468;10.992;2022-08-19T12:27:19;14.85;;;12.73;;
14092;SDS011;7123;49.468;10.992;2022-08-19T12:30:06;15.30;;;13.70;;
14092;SDS011;7123;49.468;10.992;2022-08-19T12:32:35;15.43;;;13.93;;
14092;SDS011;7123;49.468;10.992;2022-08-19T12:35:03;19.05;;;16.95;;
14092;SDS011;7123;49.468;10.992;2022-08-19T12:37:30;19.63;;;17.58;;
14092;SDS011;7123;49.468;10.992;2022-08-19T12:39:58;18.93;;;16.73;;
14092;SDS011;7123;49.468;10.992;2022-08-19T12:42:25;17.67;;;15.97;;
14092;SDS011;7123;49.468;10.992;2022-08-19T12:44:52;21.33;;;19.03;;
14092;SDS011;7123;49.468;10.992;2022-08-19T12:47:19;19.73;;;17.73;;
14092;SDS011;7123;49.468;10.992;2022-08-19T12:49:46;20.57;;;18.60;;
14092;SDS011;7123;49.468;10.992;2022-08-19T12:52:20;20.47;;;18.23;;
14092;SDS011;7123;49.468;10.992;2022-08-19T12:54:49;25.23;;;21.33;;
14092;SDS011;7123;49.468;10.992;2022-08-19T12:57:20;26.13;;;21.87;;
14092;SDS011;7123;49.468;10.992;2022-08-19T12:59:56;22.50;;;20.10;;
14092;SDS011;7123;49.468;10.992;2022-08-19T13:02:23;23.60;;;21.07;;
14092;SDS011;7123;49.468;10.992;2022-08-19T13:04:50;20.00;;;17.90;;
14092;SDS011;7123;49.468;10.992;2022-08-19T13:07:16;22.37;;;19.93;;
14092;SDS011;7123;49.468;10.992;2022-08-19T13:09:43;23.97;;;20.87;;
14092;SDS011;7123;49.468;10.992;2022-08-19T13:12:10;18.20;;;16.23;;
14092;SDS011;7123;49.468;10.992;2022-08-19T13:14:39;25.63;;;20.00;;
14092;SDS011;7123;49.468;10.992;2022-08-19T13:17:07;23.37;;;20.93;;
14092;SDS011;7123;49.468;10.992;2022-08-19T13:19:35;18.77;;;16.80;;
14092;SDS011;7123;49.468;10.992;2022-08-19T13:22:03;24.63;;;21.50;;
14092;SDS011;7123;49.468;10.992;2022-08-19T13:24:40;22.83;;;20.42;;
14092;SDS011;7123;49.468;10.992;2022-08-19T13:27:12;25.03;;;22.10;;
14092;SDS011;7123;49.468;10.992;2022-08-19T13:29:40;24.97;;;22.20;;
14092;SDS011;7123;49.468;10.992;2022-08-19T13:32:26;26.70;;;23.40;;
14092;SDS011;7123;49.468;10.992;2022-08-19T13:35:14;22.03;;;19.73;;
14092;SDS011;7123;49.468;10.992;2022-08-19T13:37:42;24.17;;;21.67;;
14092;SDS011;7123;49.468;10.992;2022-08-19T13:40:11;23.07;;;20.47;;
14092;SDS011;7123;49.468;10.992;2022-08-19T13:42:45;24.50;;;20.27;;
14092;SDS011;7123;49.468;10.992;2022-08-19T13:45:14;28.43;;;24.63;;
14092;SDS011;7123;49.468;10.992;2022-08-19T13:47:46;29.03;;;23.60;;
14092;SDS011;7123;49.468;10.992;2022-08-19T13:50:25;28.33;;;23.70;;
14092;SDS011;7123;49.468;10.992;2022-08-19T13:52:55;23.43;;;20.93;;
14092;SDS011;7123;49.468;10.992;2022-08-19T13:55:22;27.30;;;24.50;;
14092;SDS011;7123;49.468;10.992;2022-08-19T13:57:53;27.60;;;24.77;;
14092;SDS011;7123;49.468;10.992;2022-08-19T14:00:22;27.30;;;24.40;;
14092;SDS011;7123;49.468;10.992;2022-08-19T14:02:54;26.13;;;23.17;;
14092;SDS011;7123;49.468;10.992;2022-08-19T14:05:23;26.77;;;23.97;;
14092;SDS011;7123;49.468;10.992;2022-08-19T14:07:51;27.90;;;24.33;;
14092;SDS011;7123;49.468;10.992;2022-08-19T14:10:19;26.43;;;23.80;;
14092;SDS011;7123;49.468;10.992;2022-08-19T14:12:47;28.07;;;25.27;;
14092;SDS011;7123;49.468;10.992;2022-08-19T14:15:14;26.40;;;23.50;;
14092;SDS011;7123;49.468;10.992;2022-08-19T14:17:42;22.27;;;19.93;;
14092;SDS011;7123;49.468;10.992;2022-08-19T14:20:11;26.33;;;23.07;;
14092;SDS011;7123;49.468;10.992;2022-08-19T14:22:44;23.30;;;20.90;;
14092;SDS011;7123;49.468;10.992;2022-08-19T14:25:14;19.00;;;17.10;;
14092;SDS011;7123;49.468;10.992;2022-08-19T14:27:43;19.63;;;17.67;;
14092;SDS011;7123;49.468;10.992;2022-08-19T14:30:11;18.93;;;15.73;;
14092;SDS011;7123;49.468;10.992;2022-08-19T14:32:41;16.27;;;14.57;;
14092;SDS011;7123;49.468;10.992;2022-08-19T14:35:09;19.42;;;17.48;;
14092;SDS011;7123;49.468;10.992;2022-08-19T14:37:39;21.73;;;19.55;;
14092;SDS011;7123;49.468;10.992;2022-08-19T14:40:22;14.10;;;12.80;;
14092;SDS011;7123;49.468;10.992;2022-08-19T14:42:55;12.77;;;11.52;;
14092;SDS011;7123;49.468;10.992;2022-08-19T14:45:30;16.87;;;13.73;;
14092;SDS011;7123;49.468;10.992;2022-08-19T14:48:01;18.10;;;15.98;;
14092;SDS011;7123;49.468;10.992;2022-08-19T14:50:28;19.40;;;17.40;;